Startpagina
METAR-TAF:

METAR-TAF

Vliegvelden :

Malé International Airport

Malé, Maldiven

breedte: 04-12N, lengte: 073-32E, hoogte: 2 m

Actueel weer

Dit bericht is 37 minuten geleden gemaakt, om 19:00 UTC
Wind 9 kt uit het zuidwesten
Temperatuur 29°C
Vochtigheid 84%
Druk 1011 hPa
Zicht 10 km of meer
Weinig wolken op 1800 ft
Gebroken wolken op 27000 ft

METAR: VRMM 021900Z 23009KT 9999 FEW018 BKN270 29/26 Q1011 TEMPO FEW018CB

Tijdstip: 00:37 (19:37 UTC)

Verwachting

Dit bericht is 2 uur en het 37 minuten geleden gemaakt, om 17:00 UTC
Verwachting geldig van 02 om 18 UTC tot 03 om 24 UTC
Wind 11 kt uit het zuidwesten
Zicht 10 km of meer
Verspreide wolken op 1800 ft, Stapelwolken.
Tijdelijke
van 02 om 18 UTC tot 02 om 24 UTC
Zicht: 6000 m
Verspreide wolken op 1700 ft, Cumulonimbus.
onweer, lichte regen

TAF: VRMM 021700Z 0218/0324 22011KT 9999 SCT018TCU TEMPO 0218/0224 6000 -TSRA SCT017CB

Waarnemingen en weersverwachtingen van meer dan 4000 vliegvelden (METAR en TAF).

De beschikbare stations zijn de gele en rode punten op de kaart.

Ga met uw muis naar het station om de naam te zien.

Klik dan om waarnemingen en weersverwachtingen te zien.

kaart wijzigen: klik op de groene knoppen met een zwart kruis om in te zoomen, op de groene knop met een streepje om uit te zoomen of op de groene pijlen voor aangrenzende kaarten.


METAR-TAF: